Terminal Aerodrome Forecast
Issued by NWS Wakefield, VA

Home | Current Version | Previous Version | Text Only | Print | Product List | Glossary On
Versions: 1 2 3 4 5 6 7 8 9 10 11 12 13
000
FTUS41 KAKQ 012300
TAFECG
TAF
KECG 012339Z 0200/0224 07009KT 6SM -SHRA BKN010 OVC070
     FM020300 10007KT 4SM -SHRA BR OVC012
     FM021300 17012KT 5SM SHRA BR OVC025=

USA.gov is the U.S. government's official web portal to all federal, state and local government web resources and services.